Time;durP1;ratioP1;P1;durP2;ratioP2;P2;SDS_P1;SDS_P2;PMS_P1;PMS_P2;Temp;Humidity;BMP_temperature;BMP_pressure;BME280_temperature;BME280_humidity;BME280_pressure;Samples;Min_cycle;Max_cycle;Signal;HPM_P1;HPM_P2
2023/09/10 00:02:22;;;;;;;12.40;8.57;;;;;;;;;;4989517;28;20198;-63
2023/09/10 00:04:50;;;;;;;11.43;9.07;;;;;;;;;;4990245;28;20206;-63
2023/09/10 00:07:17;;;;;;;9.98;8.98;;;;;;;;;;4990872;28;20612;-63
2023/09/10 00:09:44;;;;;;;13.65;8.77;;;;;;;;;;4990204;28;20296;-63
2023/09/10 00:12:11;;;;;;;10.20;8.73;;;;;;;;;;4990435;28;20324;-63
2023/09/10 00:14:38;;;;;;;13.18;8.30;;;;;;;;;;4989884;28;20214;-63
2023/09/10 00:17:06;;;;;;;9.57;8.57;;;;;;;;;;4988634;28;20198;-63
2023/09/10 00:19:33;;;;;;;11.30;8.85;;;;;;;;;;4990026;28;20260;-63
2023/09/10 00:22:00;;;;;;;9.35;8.55;;;;;;;;;;4990239;28;20197;-63
2023/09/10 00:24:27;;;;;;;9.57;8.70;;;;;;;;;;4990049;28;20213;-64
2023/09/10 00:26:54;;;;;;;9.63;8.65;;;;;;;;;;4990202;28;20213;-64
2023/09/10 00:29:21;;;;;;;13.50;9.02;;;;;;;;;;4989501;28;20982;-63
2023/09/10 00:31:48;;;;;;;10.10;9.10;;;;;;;;;;4990160;28;20209;-63
2023/09/10 00:34:17;;;;;;;10.00;9.10;;;;;;;;;;4989584;28;20449;-63
2023/09/10 00:36:44;;;;;;;11.38;9.02;;;;;;;;;;4989924;28;20671;-64
2023/09/10 00:39:11;;;;;;;10.23;8.73;;;;;;;;;;4989647;28;21023;-63
2023/09/10 00:41:38;;;;;;;9.68;8.75;;;;;;;;;;4989541;28;20220;-64
2023/09/10 00:44:05;;;;;;;11.90;9.02;;;;;;;;;;4989438;28;20214;-63
2023/09/10 00:46:33;;;;;;;10.93;9.48;;;;;;;;;;4989632;28;20213;-64
2023/09/10 00:49:00;;;;;;;10.38;9.07;;;;;;;;;;4989863;28;20214;-64
2023/09/10 00:51:31;;;;;;;9.85;8.68;;;;;;;;;;4988271;28;20587;-63
2023/09/10 00:53:58;;;;;;;11.43;8.80;;;;;;;;;;4989648;28;20308;-64
2023/09/10 00:56:26;;;;;;;9.98;8.60;;;;;;;;;;4989190;28;20690;-63
2023/09/10 00:58:53;;;;;;;10.65;9.05;;;;;;;;;;4987839;28;20210;-63
2023/09/10 01:01:20;;;;;;;13.45;8.90;;;;;;;;;;4986134;28;20808;-63
2023/09/10 01:03:48;;;;;;;9.40;8.40;;;;;;;;;;4987197;28;20288;-63
2023/09/10 01:06:15;;;;;;;10.07;9.05;;;;;;;;;;4987606;28;20216;-63
2023/09/10 01:08:43;;;;;;;11.40;8.55;;;;;;;;;;4989224;28;20340;-63
2023/09/10 01:11:15;;;;;;;11.50;9.05;;;;;;;;;;4989885;28;20292;-63
2023/09/10 01:13:44;;;;;;;10.68;8.80;;;;;;;;;;4989458;28;20222;-63
2023/09/10 01:16:14;;;;;;;10.50;9.40;;;;;;;;;;4986373;28;20689;-63
2023/09/10 01:18:44;;;;;;;9.77;8.77;;;;;;;;;;4989153;28;20205;-63
2023/09/10 01:21:23;;;;;;;9.25;8.30;;;;;;;;;;4989384;28;20760;-63
2023/09/10 01:23:54;;;;;;;10.07;9.00;;;;;;;;;;4988711;28;20670;-63
2023/09/10 01:26:23;;;;;;;13.50;9.02;;;;;;;;;;4985553;28;20225;-63
2023/09/10 01:28:50;;;;;;;12.57;8.90;;;;;;;;;;4988263;28;20213;-63
2023/09/10 01:31:17;;;;;;;9.00;8.10;;;;;;;;;;4974349;28;20288;-63
2023/09/10 01:33:47;;;;;;;9.05;8.20;;;;;;;;;;4987469;28;20309;-64
2023/09/10 01:36:16;;;;;;;12.07;8.77;;;;;;;;;;4989125;28;20209;-63
2023/09/10 01:38:48;;;;;;;11.55;8.63;;;;;;;;;;4988670;28;20202;-63
2023/09/10 01:41:16;;;;;;;9.32;8.52;;;;;;;;;;4988783;28;20206;-63
2023/09/10 01:43:45;;;;;;;9.93;8.77;;;;;;;;;;4984712;28;20296;-63
2023/09/10 01:46:13;;;;;;;8.73;8.02;;;;;;;;;;4988924;28;20209;-63
2023/09/10 01:48:41;;;;;;;9.85;8.38;;;;;;;;;;4988493;28;20202;-63
2023/09/10 01:51:08;;;;;;;12.50;8.25;;;;;;;;;;4988717;28;20592;-64
2023/09/10 01:53:36;;;;;;;9.73;8.68;;;;;;;;;;4988789;28;20229;-63
2023/09/10 01:56:03;;;;;;;11.15;9.50;;;;;;;;;;4988812;28;20214;-64
2023/09/10 01:58:30;;;;;;;11.98;8.90;;;;;;;;;;4987625;28;20217;-63
2023/09/10 02:00:58;;;;;;;10.90;9.15;;;;;;;;;;4988269;28;20710;-63
2023/09/10 02:03:25;;;;;;;10.82;8.95;;;;;;;;;;4988833;28;20198;-64
2023/09/10 02:05:52;;;;;;;10.02;9.02;;;;;;;;;;4988526;28;20216;-63
2023/09/10 02:08:19;;;;;;;9.20;8.30;;;;;;;;;;4988442;28;20637;-63
2023/09/10 02:10:46;;;;;;;9.85;8.85;;;;;;;;;;4988826;28;20218;-63
2023/09/10 02:13:13;;;;;;;9.32;8.50;;;;;;;;;;4988172;28;20280;-63
2023/09/10 02:15:40;;;;;;;11.43;9.13;;;;;;;;;;4985115;28;20268;-63
2023/09/10 02:18:09;;;;;;;10.30;8.30;;;;;;;;;;4988647;28;20221;-64
2023/09/10 02:20:37;;;;;;;10.60;8.02;;;;;;;;;;4987084;28;20260;-63
2023/09/10 02:23:04;;;;;;;9.63;8.63;;;;;;;;;;4988171;28;20228;-62
2023/09/10 02:25:32;;;;;;;9.50;8.60;;;;;;;;;;4991684;28;20782;-65
2023/09/10 02:28:00;;;;;;;9.27;8.48;;;;;;;;;;4995237;28;20220;-63
2023/09/10 02:30:27;;;;;;;10.02;8.48;;;;;;;;;;4993798;28;20312;-63
2023/09/10 02:32:55;;;;;;;11.00;8.82;;;;;;;;;;4995201;28;20315;-63
2023/09/10 02:35:24;;;;;;;8.98;8.18;;;;;;;;;;4994604;28;20214;-63
2023/09/10 02:37:51;;;;;;;9.82;8.75;;;;;;;;;;4994790;28;21009;-64
2023/09/10 02:40:18;;;;;;;9.38;7.90;;;;;;;;;;4995031;28;20209;-63
2023/09/10 02:42:45;;;;;;;8.82;8.00;;;;;;;;;;4995050;28;20209;-63
2023/09/10 02:45:12;;;;;;;9.73;8.27;;;;;;;;;;4994521;28;20586;-63
2023/09/10 02:47:39;;;;;;;10.18;7.97;;;;;;;;;;4994876;28;20225;-64
2023/09/10 02:50:07;;;;;;;10.00;8.55;;;;;;;;;;4982687;28;20609;-63
2023/09/10 02:52:36;;;;;;;9.32;8.43;;;;;;;;;;4995046;28;20209;-63
2023/09/10 02:55:03;;;;;;;8.90;8.10;;;;;;;;;;4994647;28;20205;-63
2023/09/10 02:57:30;;;;;;;8.50;7.80;;;;;;;;;;4994148;28;20586;-64
2023/09/10 02:59:57;;;;;;;9.07;8.27;;;;;;;;;;4994585;28;20237;-64
2023/09/10 03:02:24;;;;;;;9.43;7.80;;;;;;;;;;4994350;28;20208;-64
2023/09/10 03:04:51;;;;;;;8.82;8.13;;;;;;;;;;4991790;28;20214;-64
2023/09/10 03:07:18;;;;;;;7.68;6.97;;;;;;;;;;4993485;28;20232;-64
2023/09/10 03:09:47;;;;;;;8.95;8.15;;;;;;;;;;4994532;28;20233;-64
2023/09/10 03:12:20;;;;;;;12.10;8.43;;;;;;;;;;4995239;28;20214;-64
2023/09/10 03:14:47;;;;;;;8.82;7.97;;;;;;;;;;4994599;28;20237;-64
2023/09/10 03:17:14;;;;;;;9.82;8.85;;;;;;;;;;4994858;28;20209;-64
2023/09/10 03:19:41;;;;;;;13.63;8.80;;;;;;;;;;4994567;28;20812;-63
2023/09/10 03:22:08;;;;;;;9.63;8.60;;;;;;;;;;4994729;28;20296;-64
2023/09/10 03:24:35;;;;;;;10.20;9.20;;;;;;;;;;4995095;28;20200;-63
2023/09/10 03:27:04;;;;;;;11.23;8.73;;;;;;;;;;4995188;28;20252;-64
2023/09/10 03:29:32;;;;;;;9.55;8.63;;;;;;;;;;4995154;28;20213;-63
2023/09/10 03:31:59;;;;;;;9.93;8.52;;;;;;;;;;4995054;28;20209;-64
2023/09/10 03:34:26;;;;;;;10.27;8.68;;;;;;;;;;4990847;28;21033;-64
2023/09/10 03:36:53;;;;;;;9.88;8.98;;;;;;;;;;4988055;28;20217;-63
2023/09/10 03:39:20;;;;;;;12.88;9.75;;;;;;;;;;4983754;28;20218;-63
2023/09/10 03:41:47;;;;;;;10.30;8.68;;;;;;;;;;4982347;28;20212;-63
2023/09/10 03:44:15;;;;;;;13.10;9.93;;;;;;;;;;4983019;28;20675;-64
2023/09/10 03:46:43;;;;;;;9.90;9.00;;;;;;;;;;4983916;28;20198;-63
2023/09/10 03:49:10;;;;;;;9.90;8.90;;;;;;;;;;4983113;28;20218;-63
2023/09/10 03:51:37;;;;;;;10.00;9.02;;;;;;;;;;4982414;28;20594;-63
2023/09/10 03:54:04;;;;;;;9.27;8.48;;;;;;;;;;4979947;28;20240;-64
2023/09/10 03:56:31;;;;;;;9.88;8.88;;;;;;;;;;4981843;28;20213;-63
2023/09/10 03:58:58;;;;;;;10.38;8.90;;;;;;;;;;4982221;28;20208;-63
2023/09/10 04:01:26;;;;;;;10.48;9.23;;;;;;;;;;4979563;28;20460;-63
2023/09/10 04:03:53;;;;;;;9.50;8.45;;;;;;;;;;4982376;28;20213;-63
2023/09/10 04:06:20;;;;;;;10.93;9.38;;;;;;;;;;4982008;28;20228;-63
2023/09/10 04:08:47;;;;;;;10.93;9.40;;;;;;;;;;4979776;28;20253;-63
2023/09/10 04:11:14;;;;;;;10.20;9.05;;;;;;;;;;4979627;28;20214;-64
2023/09/10 04:13:42;;;;;;;9.50;8.63;;;;;;;;;;4981602;28;20300;-63
2023/09/10 04:16:09;;;;;;;10.25;9.30;;;;;;;;;;4983759;28;20648;-64
2023/09/10 04:18:38;;;;;;;10.32;9.25;;;;;;;;;;4981406;28;20216;-63
2023/09/10 04:21:05;;;;;;;9.98;8.93;;;;;;;;;;4983907;28;20216;-64
2023/09/10 04:23:32;;;;;;;10.30;9.27;;;;;;;;;;4979262;28;20209;-63
2023/09/10 04:25:59;;;;;;;9.80;8.77;;;;;;;;;;4982544;28;20202;-63
2023/09/10 04:28:26;;;;;;;10.55;8.82;;;;;;;;;;4979757;28;20283;-64
2023/09/10 04:30:53;;;;;;;9.88;8.93;;;;;;;;;;4982438;28;20214;-64
2023/09/10 04:33:20;;;;;;;9.63;8.65;;;;;;;;;;4981071;28;20232;-64
2023/09/10 04:35:53;;;;;;;9.90;8.90;;;;;;;;;;4981081;28;20205;-63
2023/09/10 04:38:20;;;;;;;10.38;9.35;;;;;;;;;;4981643;28;20292;-64
2023/09/10 04:40:47;;;;;;;9.55;8.65;;;;;;;;;;4982191;28;20218;-64
2023/09/10 04:43:14;;;;;;;12.25;9.45;;;;;;;;;;4979649;28;20210;-62
2023/09/10 04:45:42;;;;;;;14.30;8.95;;;;;;;;;;4979942;28;20671;-64
2023/09/10 04:48:12;;;;;;;9.23;8.35;;;;;;;;;;4980265;28;20314;-64
2023/09/10 04:50:39;;;;;;;9.57;8.52;;;;;;;;;;4979806;28;20305;-63
2023/09/10 04:53:07;;;;;;;9.00;8.10;;;;;;;;;;4978586;28;20209;-62
2023/09/10 04:55:34;;;;;;;9.10;8.30;;;;;;;;;;4981705;28;20583;-62
2023/09/10 04:58:01;;;;;;;9.18;8.27;;;;;;;;;;4978109;28;20212;-62
2023/09/10 05:00:29;;;;;;;9.73;8.70;;;;;;;;;;4980245;28;20213;-63
2023/09/10 05:02:56;;;;;;;8.98;8.18;;;;;;;;;;4980084;28;20676;-63
2023/09/10 05:05:23;;;;;;;9.75;8.05;;;;;;;;;;4989354;28;20210;-63
2023/09/10 05:07:50;;;;;;;9.23;8.35;;;;;;;;;;4984146;28;20301;-63
2023/09/10 05:10:19;;;;;;;9.07;8.18;;;;;;;;;;4989034;28;20587;-64
2023/09/10 05:12:46;;;;;;;12.65;8.73;;;;;;;;;;4988515;28;20221;-63
2023/09/10 05:15:13;;;;;;;8.82;8.02;;;;;;;;;;4979038;28;20226;-64
2023/09/10 05:17:40;;;;;;;12.82;8.35;;;;;;;;;;4987177;28;20440;-63
2023/09/10 05:20:08;;;;;;;8.15;7.47;;;;;;;;;;4978084;28;20581;-63
2023/09/10 05:22:35;;;;;;;9.02;8.23;;;;;;;;;;4989617;28;20213;-63
2023/09/10 05:25:02;;;;;;;9.13;8.30;;;;;;;;;;4989969;28;20213;-63
2023/09/10 05:27:30;;;;;;;9.55;8.68;;;;;;;;;;4989430;28;20293;-63
2023/09/10 05:29:57;;;;;;;8.70;7.80;;;;;;;;;;4989537;28;20554;-64
2023/09/10 05:32:24;;;;;;;9.75;8.75;;;;;;;;;;4989783;28;20486;-64
2023/09/10 05:34:51;;;;;;;9.23;8.43;;;;;;;;;;4988565;28;20236;-63
2023/09/10 05:37:18;;;;;;;9.48;8.00;;;;;;;;;;4989567;28;20210;-64
2023/09/10 05:39:45;;;;;;;10.15;8.43;;;;;;;;;;4990486;28;20293;-63
2023/09/10 05:42:12;;;;;;;9.57;8.35;;;;;;;;;;4989564;28;20225;-64
2023/09/10 05:44:39;;;;;;;11.68;8.98;;;;;;;;;;4989186;28;20210;-63
2023/09/10 05:47:06;;;;;;;10.23;9.23;;;;;;;;;;4989623;28;20215;-63
2023/09/10 05:49:35;;;;;;;9.50;8.60;;;;;;;;;;4990130;28;20297;-63
2023/09/10 05:52:02;;;;;;;9.30;8.38;;;;;;;;;;4989570;28;20679;-63
2023/09/10 05:54:29;;;;;;;10.02;8.93;;;;;;;;;;4989564;28;20301;-63
2023/09/10 05:56:56;;;;;;;10.27;9.23;;;;;;;;;;4988738;28;20209;-63
2023/09/10 05:59:23;;;;;;;8.77;7.97;;;;;;;;;;4989207;28;20581;-63
2023/09/10 06:01:51;;;;;;;12.38;9.70;;;;;;;;;;4989707;28;20210;-63
2023/09/10 06:04:18;;;;;;;12.23;9.57;;;;;;;;;;4989664;28;20233;-63
2023/09/10 06:06:45;;;;;;;10.30;9.23;;;;;;;;;;4989189;28;20585;-63
2023/09/10 06:09:12;;;;;;;10.30;9.30;;;;;;;;;;4989534;28;20249;-64
2023/09/10 06:11:39;;;;;;;10.43;9.00;;;;;;;;;;4988922;28;20213;-63
2023/09/10 06:14:07;;;;;;;9.90;8.98;;;;;;;;;;4989263;28;20859;-63
2023/09/10 06:16:34;;;;;;;10.38;9.25;;;;;;;;;;4989388;28;20214;-64
2023/09/10 06:19:03;;;;;;;9.70;8.70;;;;;;;;;;4988422;28;20217;-64
2023/09/10 06:21:30;;;;;;;12.50;9.35;;;;;;;;;;4989212;28;20197;-64
2023/09/10 06:23:57;;;;;;;10.18;8.98;;;;;;;;;;4988251;28;20550;-64
2023/09/10 06:26:24;;;;;;;11.20;8.82;;;;;;;;;;4989637;28;20564;-63
2023/09/10 06:28:51;;;;;;;11.02;8.35;;;;;;;;;;4988708;28;20955;-64
2023/09/10 06:31:18;;;;;;;10.30;8.82;;;;;;;;;;4989341;28;20217;-63
2023/09/10 06:33:45;;;;;;;10.25;9.25;;;;;;;;;;4988864;28;20208;-63
2023/09/10 06:36:13;;;;;;;8.98;8.18;;;;;;;;;;4989702;28;20214;-64
2023/09/10 06:38:47;;;;;;;10.63;8.80;;;;;;;;;;4988595;28;20228;-63
2023/09/10 06:41:14;;;;;;;7.93;7.25;;;;;;;;;;4989141;28;20660;-64
2023/09/10 06:43:41;;;;;;;10.30;8.40;;;;;;;;;;4988479;28;20206;-64
2023/09/10 06:46:08;;;;;;;9.70;7.75;;;;;;;;;;4988964;28;20209;-63
2023/09/10 06:48:35;;;;;;;9.00;8.15;;;;;;;;;;4988618;28;20330;-64
2023/09/10 06:51:02;;;;;;;9.18;8.27;;;;;;;;;;4987778;28;20676;-64
2023/09/10 06:53:31;;;;;;;9.95;8.55;;;;;;;;;;4988743;28;20268;-63
2023/09/10 06:55:58;;;;;;;9.75;8.18;;;;;;;;;;4987846;28;20245;-63
2023/09/10 06:58:25;;;;;;;9.50;8.48;;;;;;;;;;4988592;28;20829;-68
2023/09/10 07:00:52;;;;;;;11.43;7.75;;;;;;;;;;4987867;28;20694;-64
2023/09/10 07:03:19;;;;;;;8.70;7.85;;;;;;;;;;4988170;28;20221;-65
2023/09/10 07:05:46;;;;;;;8.25;7.10;;;;;;;;;;4987539;28;20323;-65
2023/09/10 07:08:13;;;;;;;9.68;8.02;;;;;;;;;;4981235;28;20637;-66
2023/09/10 07:10:42;;;;;;;10.10;8.63;;;;;;;;;;4977758;28;20304;-64
2023/09/10 07:13:09;;;;;;;9.07;7.85;;;;;;;;;;4988290;28;20210;-65
2023/09/10 07:15:36;;;;;;;11.35;8.23;;;;;;;;;;4992545;28;20870;-66
2023/09/10 07:18:04;;;;;;;9.15;7.70;;;;;;;;;;4990936;28;20233;-67
2023/09/10 07:20:31;;;;;;;7.85;7.25;;;;;;;;;;4992538;28;20311;-66
2023/09/10 07:22:58;;;;;;;9.70;8.27;;;;;;;;;;4991683;28;20210;-66
2023/09/10 07:25:25;;;;;;;10.60;7.22;;;;;;;;;;4991928;28;20229;-65
2023/09/10 07:27:53;;;;;;;8.82;8.02;;;;;;;;;;4992377;28;20217;-66
2023/09/10 07:30:20;;;;;;;8.02;7.22;;;;;;;;;;4991856;28;20221;-65
2023/09/10 07:32:47;;;;;;;7.82;7.18;;;;;;;;;;4992485;28;20213;-65
2023/09/10 07:35:16;;;;;;;7.88;6.93;;;;;;;;;;4992196;28;20222;-66
2023/09/10 07:37:43;;;;;;;7.70;7.10;;;;;;;;;;4992049;28;20256;-65
2023/09/10 07:40:11;;;;;;;9.13;7.22;;;;;;;;;;4992067;28;20232;-65
2023/09/10 07:42:38;;;;;;;8.65;7.20;;;;;;;;;;4992309;28;20209;-66
2023/09/10 07:45:13;;;;;;;7.82;7.13;;;;;;;;;;4992283;28;20210;-65
2023/09/10 07:47:41;;;;;;;8.95;7.93;;;;;;;;;;4990269;28;20205;-65
2023/09/10 07:50:08;;;;;;;8.88;7.97;;;;;;;;;;4991894;28;20260;-66
2023/09/10 07:52:35;;;;;;;9.00;7.75;;;;;;;;;;4991058;28;20231;-64
2023/09/10 07:55:02;;;;;;;9.15;7.53;;;;;;;;;;4991644;28;20730;-64
2023/09/10 07:57:29;;;;;;;8.48;7.68;;;;;;;;;;4990271;28;20224;-66
2023/09/10 07:59:56;;;;;;;8.18;7.38;;;;;;;;;;4972825;28;20220;-66
2023/09/10 08:02:27;;;;;;;8.23;7.43;;;;;;;;;;4990650;28;20593;-66
2023/09/10 08:04:54;;;;;;;8.07;7.28;;;;;;;;;;4991415;28;20588;-65
2023/09/10 08:07:21;;;;;;;8.75;7.95;;;;;;;;;;4990177;28;20233;-65
2023/09/10 08:09:48;;;;;;;7.65;6.95;;;;;;;;;;4991635;28;20252;-65
2023/09/10 08:12:16;;;;;;;8.70;7.93;;;;;;;;;;4992004;28;20209;-66
2023/09/10 08:14:43;;;;;;;8.18;6.78;;;;;;;;;;4991516;28;20606;-66
2023/09/10 08:17:10;;;;;;;7.97;7.25;;;;;;;;;;4991216;28;20401;-66
2023/09/10 08:19:38;;;;;;;8.98;7.25;;;;;;;;;;4991384;28;20229;-66
2023/09/10 08:22:05;;;;;;;7.65;7.05;;;;;;;;;;4990883;28;20691;-66
2023/09/10 08:24:32;;;;;;;7.25;6.68;;;;;;;;;;4991162;28;20209;-69
2023/09/10 08:27:02;;;;;;;7.80;7.07;;;;;;;;;;4991177;28;20224;-68
2023/09/10 08:29:30;;;;;;;7.30;6.68;;;;;;;;;;4989785;28;20272;-69
2023/09/10 08:31:57;;;;;;;6.65;6.13;;;;;;;;;;4981273;28;20208;-68
2023/09/10 08:34:25;;;;;;;7.28;6.57;;;;;;;;;;4980082;28;20209;-69
2023/09/10 08:36:54;;;;;;;7.75;6.95;;;;;;;;;;4989066;28;20269;-65
2023/09/10 08:39:21;;;;;;;8.98;6.50;;;;;;;;;;4987024;28;20210;-68
2023/09/10 08:41:52;;;;;;;9.85;6.50;;;;;;;;;;4986531;28;20221;-70
2023/09/10 08:44:22;;;;;;;6.80;6.25;;;;;;;;;;4990253;28;20213;-69
2023/09/10 08:46:51;;;;;;;6.63;6.20;;;;;;;;;;4990485;28;20210;-66
2023/09/10 08:49:19;;;;;;;7.28;6.78;;;;;;;;;;4990792;28;20285;-65
2023/09/10 08:51:46;;;;;;;7.38;6.75;;;;;;;;;;4989955;28;20225;-65
2023/09/10 08:54:15;;;;;;;6.63;5.88;;;;;;;;;;4989113;28;20229;-65
2023/09/10 08:56:43;;;;;;;7.30;6.57;;;;;;;;;;4988192;28;20205;-65
2023/09/10 08:59:11;;;;;;;6.20;5.68;;;;;;;;;;4986912;28;20214;-65
2023/09/10 09:01:39;;;;;;;6.68;6.07;;;;;;;;;;4985607;28;20346;-65
2023/09/10 09:04:06;;;;;;;6.70;6.13;;;;;;;;;;4987372;28;20205;-66
2023/09/10 09:06:35;;;;;;;6.35;5.82;;;;;;;;;;4983871;28;20729;-65
2023/09/10 09:09:05;;;;;;;6.40;5.90;;;;;;;;;;4984006;28;20245;-65
2023/09/10 09:11:36;;;;;;;6.78;6.28;;;;;;;;;;4989555;28;20213;-65
2023/09/10 09:14:07;;;;;;;6.65;6.15;;;;;;;;;;4988806;28;20630;-65
2023/09/10 09:16:34;;;;;;;6.13;5.60;;;;;;;;;;4987230;28;20233;-65
2023/09/10 09:19:02;;;;;;;6.80;5.90;;;;;;;;;;4987382;28;20206;-67
2023/09/10 09:21:31;;;;;;;6.53;6.03;;;;;;;;;;4985325;28;20202;-65
2023/09/10 09:23:59;;;;;;;6.70;6.20;;;;;;;;;;4989264;28;20206;-65
2023/09/10 09:26:27;;;;;;;6.55;6.05;;;;;;;;;;4989473;28;20202;-66
2023/09/10 09:28:56;;;;;;;6.82;6.32;;;;;;;;;;4988734;28;20210;-65
2023/09/10 09:31:24;;;;;;;6.68;5.72;;;;;;;;;;4985122;28;20575;-65
2023/09/10 09:33:51;;;;;;;6.00;5.47;;;;;;;;;;4989095;28;20214;-64
2023/09/10 09:36:18;;;;;;;6.38;5.88;;;;;;;;;;4989352;28;20236;-64
2023/09/10 09:38:47;;;;;;;6.30;5.90;;;;;;;;;;4973590;28;20214;-61
2023/09/10 09:41:15;;;;;;;6.25;5.70;;;;;;;;;;4989397;28;20584;-61
2023/09/10 09:43:42;;;;;;;6.75;6.20;;;;;;;;;;4988213;28;20214;-64
2023/09/10 09:46:11;;;;;;;6.65;6.10;;;;;;;;;;4988894;28;20676;-63
2023/09/10 09:48:39;;;;;;;6.10;5.70;;;;;;;;;;4969861;28;20213;-64
2023/09/10 09:51:06;;;;;;;6.28;5.78;;;;;;;;;;4977553;28;20205;-77
2023/09/10 09:53:33;;;;;;;8.00;6.28;;;;;;;;;;4989481;28;20293;-67
2023/09/10 09:56:03;;;;;;;6.93;6.38;;;;;;;;;;4988245;28;20249;-67
2023/09/10 09:58:30;;;;;;;7.95;6.18;;;;;;;;;;4988990;28;20292;-67
2023/09/10 10:00:57;;;;;;;6.65;6.20;;;;;;;;;;4979483;28;20245;-67
2023/09/10 10:03:26;;;;;;;7.25;6.65;;;;;;;;;;4989152;28;20202;-67
2023/09/10 10:05:53;;;;;;;6.85;6.15;;;;;;;;;;4979254;28;20206;-67
2023/09/10 10:08:25;;;;;;;7.10;6.60;;;;;;;;;;4989572;28;20226;-66
2023/09/10 10:10:52;;;;;;;7.63;6.25;;;;;;;;;;4989301;28;20229;-67
2023/09/10 10:13:19;;;;;;;6.47;5.97;;;;;;;;;;4989199;28;20209;-67
2023/09/10 10:15:47;;;;;;;6.53;6.07;;;;;;;;;;4989147;28;20241;-67
2023/09/10 10:18:16;;;;;;;5.90;5.38;;;;;;;;;;4988519;28;20202;-68
2023/09/10 10:20:47;;;;;;;6.13;5.63;;;;;;;;;;4984953;28;20202;-64
2023/09/10 10:23:14;;;;;;;7.00;6.35;;;;;;;;;;4988841;28;20205;-65
2023/09/10 10:25:42;;;;;;;6.82;6.20;;;;;;;;;;4985828;28;20587;-72
2023/09/10 10:28:10;;;;;;;6.55;6.15;;;;;;;;;;4989019;28;20208;-69
2023/09/10 10:30:38;;;;;;;7.43;6.72;;;;;;;;;;4988808;28;20634;-64
2023/09/10 10:33:07;;;;;;;6.85;6.10;;;;;;;;;;4988946;28;20272;-64
2023/09/10 10:35:37;;;;;;;6.43;5.82;;;;;;;;;;4987690;28;20242;-63
2023/09/10 10:38:08;;;;;;;6.95;5.97;;;;;;;;;;4988342;28;20207;-65
2023/09/10 10:40:37;;;;;;;6.22;5.57;;;;;;;;;;4976986;28;20248;-64
2023/09/10 10:43:07;;;;;;;6.00;5.60;;;;;;;;;;4984715;28;20217;-64
2023/09/10 10:45:35;;;;;;;6.70;6.07;;;;;;;;;;4986185;28;20209;-66
2023/09/10 10:48:05;;;;;;;5.93;5.50;;;;;;;;;;4992836;28;20217;-65
2023/09/10 10:50:36;;;;;;;6.13;5.70;;;;;;;;;;4992002;28;20693;-66
2023/09/10 10:53:05;;;;;;;6.30;5.80;;;;;;;;;;4991835;28;20551;-65
2023/09/10 10:55:34;;;;;;;6.85;5.65;;;;;;;;;;4990956;28;20233;-66
2023/09/10 10:58:01;;;;;;;6.43;5.93;;;;;;;;;;4991090;28;20295;-65
2023/09/10 11:00:29;;;;;;;7.00;5.60;;;;;;;;;;4981654;28;20240;-66
2023/09/10 11:03:09;;;;;;;5.43;5.03;;;;;;;;;;4991819;28;20264;-64
2023/09/10 11:06:05;;;;;;;8.55;5.75;;;;;;;;;;4990596;28;20214;-63
2023/09/10 11:08:33;;;;;;;5.95;5.50;;;;;;;;;;4992415;28;20233;-67
2023/09/10 11:11:03;;;;;;;5.72;5.22;;;;;;;;;;4992391;28;20215;-67
2023/09/10 11:13:30;;;;;;;8.45;5.40;;;;;;;;;;4992308;28;20667;-66
2023/09/10 11:16:24;;;;;;;8.02;5.80;;;;;;;;;;4990449;28;20324;-67
2023/09/10 11:18:51;;;;;;;5.78;5.38;;;;;;;;;;4941764;28;20600;-67
2023/09/10 11:21:18;;;;;;;6.75;5.50;;;;;;;;;;4988058;28;20205;-67
2023/09/10 11:24:04;;;;;;;5.32;4.80;;;;;;;;;;4990506;28;20205;-65
2023/09/10 11:26:33;;;;;;;9.82;4.63;;;;;;;;;;4989413;28;20281;-65
2023/09/10 11:29:01;;;;;;;12.43;4.78;;;;;;;;;;4987238;28;20206;-67
2023/09/10 11:31:36;;;;;;;12.90;5.10;;;;;;;;;;4991312;28;20208;-66
2023/09/10 11:34:18;;;;;;;7.70;5.30;;;;;;;;;;4990775;28;20224;-66
2023/09/10 11:36:46;;;;;;;8.18;5.70;;;;;;;;;;4990754;28;20248;-67
2023/09/10 11:39:14;;;;;;;7.28;5.07;;;;;;;;;;4983292;28;20224;-69
2023/09/10 11:41:43;;;;;;;6.40;4.38;;;;;;;;;;4991675;28;20236;-67
2023/09/10 11:44:10;;;;;;;8.80;4.38;;;;;;;;;;4984274;28;20210;-66
2023/09/10 11:46:37;;;;;;;9.63;4.47;;;;;;;;;;4989616;28;20213;-65
2023/09/10 11:49:05;;;;;;;6.40;4.53;;;;;;;;;;4979152;28;20218;-65
2023/09/10 11:51:32;;;;;;;11.77;4.20;;;;;;;;;;4984797;28;20231;-66
2023/09/10 11:53:59;;;;;;;9.13;4.43;;;;;;;;;;4979065;28;20209;-66
2023/09/10 11:56:26;;;;;;;10.65;4.25;;;;;;;;;;4991336;28;20723;-66
2023/09/10 11:58:55;;;;;;;7.13;3.47;;;;;;;;;;4988452;28;20213;-66
2023/09/10 12:01:22;;;;;;;6.50;4.13;;;;;;;;;;4989034;28;20217;-66
2023/09/10 12:03:49;;;;;;;11.23;4.35;;;;;;;;;;4985196;28;20213;-66
2023/09/10 12:06:17;;;;;;;13.45;4.13;;;;;;;;;;4989081;28;20209;-67
2023/09/10 12:08:44;;;;;;;6.95;4.43;;;;;;;;;;4985318;28;20650;-66
2023/09/10 12:11:12;;;;;;;5.25;3.83;;;;;;;;;;4985585;28;20667;-68
2023/09/10 12:13:40;;;;;;;8.90;4.25;;;;;;;;;;4986524;28;20213;-67
2023/09/10 12:16:11;;;;;;;11.45;4.05;;;;;;;;;;4989398;28;20244;-67
2023/09/10 12:18:38;;;;;;;9.77;4.80;;;;;;;;;;4987212;28;20671;-67
2023/09/10 12:21:05;;;;;;;7.47;4.45;;;;;;;;;;4991598;28;20209;-68
2023/09/10 12:23:33;;;;;;;8.13;4.40;;;;;;;;;;4987930;28;20240;-67
2023/09/10 12:26:00;;;;;;;13.15;5.20;;;;;;;;;;4986118;28;20209;-67
2023/09/10 12:28:27;;;;;;;6.70;4.85;;;;;;;;;;4987223;28;20602;-67
2023/09/10 12:30:54;;;;;;;5.97;4.65;;;;;;;;;;4991536;28;20205;-67
2023/09/10 12:33:23;;;;;;;11.27;4.30;;;;;;;;;;4989477;28;20232;-68
2023/09/10 12:35:51;;;;;;;6.75;4.38;;;;;;;;;;4987545;28;20307;-67
2023/09/10 12:38:18;;;;;;;5.15;4.53;;;;;;;;;;4991194;28;20205;-67
2023/09/10 12:40:47;;;;;;;9.98;4.90;;;;;;;;;;4991186;28;20676;-67
2023/09/10 12:43:18;;;;;;;5.40;4.40;;;;;;;;;;4990599;28;20209;-67
2023/09/10 12:45:45;;;;;;;7.47;4.40;;;;;;;;;;4991045;28;20542;-68
2023/09/10 12:48:12;;;;;;;13.40;4.70;;;;;;;;;;4989340;28;20254;-69
2023/09/10 12:50:41;;;;;;;9.70;4.10;;;;;;;;;;4991221;28;20208;-70
2023/09/10 12:53:08;;;;;;;9.88;4.32;;;;;;;;;;4988474;28;20651;-67
2023/09/10 12:55:36;;;;;;;6.05;4.40;;;;;;;;;;4986915;28;20628;-67
2023/09/10 12:58:03;;;;;;;7.30;4.80;;;;;;;;;;4985524;28;20217;-67
2023/09/10 13:00:30;;;;;;;9.48;4.05;;;;;;;;;;4985377;28;20205;-66
2023/09/10 13:02:58;;;;;;;9.85;4.28;;;;;;;;;;4988697;28;20206;-66
2023/09/10 13:05:25;;;;;;;9.63;4.10;;;;;;;;;;4987671;28;20210;-66
2023/09/10 13:07:53;;;;;;;7.13;4.38;;;;;;;;;;4990054;28;20283;-67
2023/09/10 13:10:20;;;;;;;7.35;4.10;;;;;;;;;;4984899;28;20297;-67
2023/09/10 13:12:47;;;;;;;5.35;3.90;;;;;;;;;;4975962;28;20210;-67
2023/09/10 13:15:15;;;;;;;8.00;4.03;;;;;;;;;;4981285;28;20216;-67
2023/09/10 13:17:42;;;;;;;12.30;4.50;;;;;;;;;;4989185;28;20320;-67
2023/09/10 13:20:09;;;;;;;9.88;3.97;;;;;;;;;;4988285;28;20225;-67
2023/09/10 13:22:36;;;;;;;8.30;4.10;;;;;;;;;;4987872;28;20225;-67
2023/09/10 13:25:05;;;;;;;10.88;4.10;;;;;;;;;;4988593;28;20220;-67
2023/09/10 13:27:32;;;;;;;11.43;4.72;;;;;;;;;;4990236;28;20213;-67
2023/09/10 13:29:59;;;;;;;10.82;4.45;;;;;;;;;;4990278;28;20214;-67
2023/09/10 13:32:27;;;;;;;8.93;3.95;;;;;;;;;;4989564;28;20209;-66
2023/09/10 13:34:54;;;;;;;4.95;3.92;;;;;;;;;;4989925;28;20216;-67
2023/09/10 13:37:21;;;;;;;6.82;3.85;;;;;;;;;;4988667;28;20217;-67
2023/09/10 13:39:48;;;;;;;10.48;4.53;;;;;;;;;;4989287;28;20212;-67
2023/09/10 13:42:16;;;;;;;11.82;4.18;;;;;;;;;;4989365;28;20217;-67
2023/09/10 13:44:43;;;;;;;9.25;4.03;;;;;;;;;;4989444;28;20202;-67
2023/09/10 13:47:10;;;;;;;13.52;4.72;;;;;;;;;;4989951;28;20206;-67
2023/09/10 13:49:37;;;;;;;6.35;3.70;;;;;;;;;;4989047;28;20583;-67
2023/09/10 13:52:05;;;;;;;7.13;4.13;;;;;;;;;;4989564;28;20220;-67
2023/09/10 13:54:32;;;;;;;6.10;4.93;;;;;;;;;;4989002;28;20205;-67
2023/09/10 13:56:59;;;;;;;8.45;4.53;;;;;;;;;;4989756;28;20251;-67
2023/09/10 13:59:27;;;;;;;4.75;3.72;;;;;;;;;;4989314;28;20719;-66
2023/09/10 14:01:54;;;;;;;11.48;4.00;;;;;;;;;;4989214;28;20205;-67
2023/09/10 14:04:24;;;;;;;10.23;3.80;;;;;;;;;;4986910;28;20255;-68
2023/09/10 14:06:51;;;;;;;8.77;4.28;;;;;;;;;;4986527;28;20233;-67
2023/09/10 14:09:18;;;;;;;13.70;4.32;;;;;;;;;;4987508;28;20241;-67
2023/09/10 14:11:45;;;;;;;8.93;4.40;;;;;;;;;;4982716;28;20217;-67
2023/09/10 14:14:12;;;;;;;8.23;4.30;;;;;;;;;;4989269;28;20656;-67
2023/09/10 14:16:40;;;;;;;15.55;3.97;;;;;;;;;;4985411;28;20808;-68
2023/09/10 14:19:07;;;;;;;9.43;4.05;;;;;;;;;;4989313;28;20224;-67
2023/09/10 14:21:38;;;;;;;13.00;5.03;;;;;;;;;;4987208;28;20217;-67
2023/09/10 14:24:05;;;;;;;5.07;4.38;;;;;;;;;;4988512;28;20214;-65
2023/09/10 14:26:35;;;;;;;6.00;4.07;;;;;;;;;;4989447;28;20215;-66
2023/09/10 14:29:02;;;;;;;7.88;4.30;;;;;;;;;;4989629;28;20218;-67
2023/09/10 14:31:29;;;;;;;10.05;4.80;;;;;;;;;;4975186;28;20214;-66
2023/09/10 14:33:58;;;;;;;13.27;4.78;;;;;;;;;;4969458;28;20214;-66
2023/09/10 14:36:25;;;;;;;7.18;4.05;;;;;;;;;;4981497;28;20225;-66
2023/09/10 14:38:52;;;;;;;6.65;3.90;;;;;;;;;;4989279;28;20224;-66
2023/09/10 14:41:19;;;;;;;15.85;4.32;;;;;;;;;;4988889;28;20213;-67
2023/09/10 14:43:46;;;;;;;12.18;4.68;;;;;;;;;;4987644;28;20213;-65